Aviation Digital Data Service (ADDS)

Output produced by METARs form (1449 UTC 24 August 2019)
found at http://www.aviationweather.gov/metar/data/
 
Forecast for: EDDL (DUESSELDORF , DE)
Text: TAF EDDL 241100Z 2412/2518 13004KT CAVOK
Forecast period: 1200 UTC 24 August 2019 to 1800 UTC 25 August 2019
Forecast type: FROM: standard forecast or significant change
Winds: from the SE (130 degrees) at 5 MPH (4 knots; 2.1 m/s)
Visibility: 6 or more miles 10+ km)
Ceiling: unknown
Clouds: missing
Weather: NSW  (no significant weather)